Time;durP1;ratioP1;P1;durP2;ratioP2;P2;SDS_P1;SDS_P2;PMS_P1;PMS_P2;Temp;Humidity;BMP_temperature;BMP_pressure;BME280_temperature;BME280_humidity;BME280_pressure;Samples;Min_cycle;Max_cycle;Signal;HPM_P1;HPM_P2
2024/02/20 00:00:51;;;;;;;1024.20;952.30;;;6.70;99.90;;;;;;5052766;28;20556;-68
2024/02/20 00:03:18;;;;;;;997.37;926.10;;;6.70;99.90;;;;;;5052414;28;20497;-67
2024/02/20 00:05:45;;;;;;;976.07;906.57;;;6.70;99.90;;;;;;5052596;28;20483;-67
2024/02/20 00:08:13;;;;;;;975.17;906.47;;;6.70;99.90;;;;;;5052678;28;20457;-67
2024/02/20 00:10:40;;;;;;;977.47;909.23;;;6.70;99.90;;;;;;5052543;28;20455;-68
2024/02/20 00:13:06;;;;;;;996.80;926.80;;;6.60;99.90;;;;;;5052305;28;20479;-68
2024/02/20 00:15:34;;;;;;;969.17;900.97;;;6.60;99.90;;;;;;5053258;28;20451;-68
2024/02/20 00:18:01;;;;;;;1010.60;937.90;;;6.50;99.90;;;;;;5053191;28;20551;-68
2024/02/20 00:20:28;;;;;;;1030.40;956.70;;;6.50;99.90;;;;;;5053151;28;20466;-67
2024/02/20 00:22:55;;;;;;;1056.30;978.50;;;6.40;99.90;;;;;;5052573;28;20475;-68
2024/02/20 00:25:23;;;;;;;1045.23;969.57;;;6.40;99.90;;;;;;5052552;28;20546;-67
2024/02/20 00:27:49;;;;;;;1067.37;989.37;;;6.30;99.90;;;;;;5052428;28;20462;-68
2024/02/20 00:30:16;;;;;;;1083.37;999.90;;;6.30;99.90;;;;;;5052249;28;20447;-67
2024/02/20 00:32:43;;;;;;;1075.70;994.40;;;6.20;99.90;;;;;;5051666;28;20554;-68
2024/02/20 00:35:10;;;;;;;1090.23;999.90;;;6.10;99.90;;;;;;5052192;28;20455;-68
2024/02/20 00:37:37;;;;;;;1080.10;999.47;;;6.00;99.90;;;;;;5052136;28;20541;-68
2024/02/20 00:40:06;;;;;;;1078.20;995.80;;;5.90;99.90;;;;;;5052237;28;20497;-68
2024/02/20 00:42:35;;;;;;;1079.80;996.40;;;5.80;99.90;;;;;;5051905;28;20478;-67
2024/02/20 00:45:03;;;;;;;1094.73;999.90;;;5.80;99.90;;;;;;5052265;28;20451;-67
2024/02/20 00:47:30;;;;;;;1099.17;999.90;;;5.70;99.90;;;;;;5052541;28;20479;-68
2024/02/20 00:49:57;;;;;;;1105.53;999.90;;;5.70;99.90;;;;;;5052208;28;20455;-68
2024/02/20 00:52:25;;;;;;;1135.07;999.90;;;5.60;99.90;;;;;;5051563;28;20470;-67
2024/02/20 00:54:52;;;;;;;1126.70;999.90;;;5.70;99.90;;;;;;5052034;28;20455;-67
2024/02/20 00:57:19;;;;;;;1123.90;999.90;;;5.50;99.90;;;;;;5051875;28;20447;-68
2024/02/20 00:59:47;;;;;;;1119.40;999.90;;;5.50;99.90;;;;;;5051774;28;20473;-67
2024/02/20 01:02:14;;;;;;;1131.27;999.90;;;5.40;99.90;;;;;;5052056;28;20451;-67
2024/02/20 01:04:41;;;;;;;1111.37;999.90;;;5.30;99.90;;;;;;5052110;28;20462;-67
2024/02/20 01:07:08;;;;;;;1120.60;999.90;;;5.10;99.90;;;;;;5051868;28;20665;-68
2024/02/20 01:09:35;;;;;;;1132.33;999.90;;;5.10;99.90;;;;;;5051762;28;20454;-67
2024/02/20 01:12:02;;;;;;;1129.50;999.90;;;5.10;99.90;;;;;;5051352;28;20461;-67
2024/02/20 01:14:30;;;;;;;1128.67;999.90;;;5.00;99.90;;;;;;5051885;28;20538;-67
2024/02/20 01:16:58;;;;;;;1121.63;999.90;;;4.80;99.90;;;;;;5051561;28;20980;-68
2024/02/20 01:19:25;;;;;;;1146.13;999.90;;;4.80;99.90;;;;;;5051783;28;20459;-67
2024/02/20 01:21:51;;;;;;;1122.30;999.90;;;4.80;99.90;;;;;;5051715;28;20455;-67
2024/02/20 01:24:18;;;;;;;1119.53;999.90;;;4.80;99.90;;;;;;5050978;28;20869;-68
2024/02/20 01:26:45;;;;;;;1107.63;999.90;;;4.80;99.90;;;;;;5051420;28;20596;-67
2024/02/20 01:29:13;;;;;;;1100.10;999.90;;;4.80;99.90;;;;;;5051649;28;20450;-67
2024/02/20 01:31:39;;;;;;;1110.73;999.90;;;4.90;99.90;;;;;;5051699;28;20517;-67
2024/02/20 01:34:07;;;;;;;1109.77;999.90;;;4.90;99.90;;;;;;5051038;28;20471;-67
2024/02/20 01:36:34;;;;;;;1102.63;999.90;;;4.90;99.90;;;;;;5051583;28;20829;-67
2024/02/20 01:39:01;;;;;;;1108.60;999.90;;;5.10;99.90;;;;;;5051755;28;20946;-67
2024/02/20 01:41:28;;;;;;;1103.70;999.90;;;5.20;99.90;;;;;;5051147;28;20538;-68
2024/02/20 01:43:54;;;;;;;1104.97;999.90;;;5.30;99.90;;;;;;5051307;28;20474;-68
2024/02/20 01:46:22;;;;;;;1101.43;999.90;;;5.50;99.90;;;;;;5051414;28;20487;-67
2024/02/20 01:48:50;;;;;;;1107.67;999.90;;;5.70;99.90;;;;;;5051307;28;20528;-67
2024/02/20 01:51:20;;;;;;;1109.07;999.90;;;5.90;99.90;;;;;;5043401;28;20451;-68
2024/02/20 01:53:48;;;;;;;1093.40;999.67;;;6.00;99.90;;;;;;5050802;28;20471;-67
2024/02/20 01:56:16;;;;;;;1098.17;999.90;;;6.10;99.90;;;;;;5051590;28;20447;-67
2024/02/20 01:58:43;;;;;;;1099.63;999.90;;;6.10;99.90;;;;;;5051180;28;20985;-68
2024/02/20 02:01:10;;;;;;;1096.37;999.90;;;6.20;99.90;;;;;;5051302;28;20455;-68
2024/02/20 02:03:37;;;;;;;1106.67;999.90;;;6.20;99.90;;;;;;5050757;28;20474;-68
2024/02/20 02:06:04;;;;;;;1115.10;999.90;;;6.30;99.90;;;;;;5051100;28;20891;-66
2024/02/20 02:08:32;;;;;;;1114.97;999.90;;;6.30;99.90;;;;;;5051133;28;20451;-68
2024/02/20 02:10:59;;;;;;;1119.10;999.90;;;6.30;99.90;;;;;;5054623;28;20845;-67
2024/02/20 02:13:25;;;;;;;1110.57;999.90;;;6.30;99.90;;;;;;5054360;28;20504;-67
2024/02/20 02:15:52;;;;;;;1099.23;999.90;;;6.40;99.90;;;;;;5054824;28;20453;-67
2024/02/20 02:18:19;;;;;;;1112.43;999.90;;;6.40;99.90;;;;;;5054576;28;20538;-68
2024/02/20 02:20:46;;;;;;;1106.77;999.90;;;6.40;99.90;;;;;;5054409;28;20451;-68
2024/02/20 02:23:13;;;;;;;1113.83;999.90;;;6.40;99.90;;;;;;5054130;28;20479;-68
2024/02/20 02:25:41;;;;;;;1114.47;999.90;;;6.40;99.90;;;;;;5054730;28;20841;-67
2024/02/20 02:28:09;;;;;;;1104.47;999.90;;;6.40;99.90;;;;;;5054604;28;20454;-68
2024/02/20 02:30:36;;;;;;;1109.07;999.90;;;6.40;99.90;;;;;;5054517;28;20458;-67
2024/02/20 02:33:03;;;;;;;1096.17;999.90;;;6.40;99.90;;;;;;5053927;28;20525;-67
2024/02/20 02:35:30;;;;;;;1101.80;999.90;;;6.30;99.90;;;;;;5054776;28;20450;-67
2024/02/20 02:37:57;;;;;;;1115.60;999.90;;;6.30;99.90;;;;;;5054348;28;20478;-67
2024/02/20 02:40:24;;;;;;;1100.70;999.90;;;6.30;99.90;;;;;;5054611;28;20454;-68
2024/02/20 02:42:51;;;;;;;1094.60;999.47;;;6.30;99.90;;;;;;5053724;28;20979;-68
2024/02/20 02:45:19;;;;;;;1095.73;999.90;;;6.30;99.90;;;;;;5054548;28;20877;-67
2024/02/20 02:47:46;;;;;;;1101.17;999.90;;;6.30;99.90;;;;;;5054344;28;21032;-67
2024/02/20 02:50:12;;;;;;;1101.73;999.90;;;6.30;99.90;;;;;;5053910;28;20977;-65
2024/02/20 02:52:41;;;;;;;1089.17;995.53;;;6.30;99.90;;;;;;5053860;28;20471;-65
2024/02/20 02:55:10;;;;;;;1121.90;999.90;;;6.30;99.90;;;;;;5054258;28;20458;-65
2024/02/20 02:57:36;;;;;;;1108.63;999.90;;;6.20;99.90;;;;;;5054096;28;20463;-65
2024/02/20 03:00:08;;;;;;;1106.40;999.90;;;6.30;99.90;;;;;;5054051;28;20976;-65
2024/02/20 03:02:38;;;;;;;1096.57;999.90;;;6.30;99.90;;;;;;5053518;28;20491;-65
2024/02/20 03:05:06;;;;;;;1090.63;997.50;;;6.30;99.90;;;;;;5054177;28;20470;-65
2024/02/20 03:07:33;;;;;;;1102.63;999.90;;;6.20;99.90;;;;;;5053915;28;20483;-65
2024/02/20 03:10:00;;;;;;;1105.13;999.90;;;6.30;99.90;;;;;;5053845;28;20462;-65
2024/02/20 03:12:27;;;;;;;1113.17;999.90;;;6.30;99.90;;;;;;5053146;28;20481;-65
2024/02/20 03:14:54;;;;;;;1096.03;999.90;;;6.30;99.90;;;;;;5053460;28;20458;-65
2024/02/20 03:17:21;;;;;;;1099.73;999.90;;;6.30;99.90;;;;;;5053627;28;20462;-65
2024/02/20 03:19:49;;;;;;;1108.13;999.90;;;6.30;99.90;;;;;;5053770;28;20451;-65
2024/02/20 03:22:15;;;;;;;1126.60;999.90;;;6.30;99.90;;;;;;5045121;28;20458;-65
2024/02/20 03:24:43;;;;;;;1117.33;999.90;;;6.30;99.90;;;;;;5053298;28;20447;-65
2024/02/20 03:27:10;;;;;;;1107.87;999.90;;;6.30;99.90;;;;;;5053285;28;20490;-65
2024/02/20 03:29:37;;;;;;;1094.87;999.90;;;6.40;99.90;;;;;;5053231;28;20501;-65
2024/02/20 03:32:04;;;;;;;1097.97;999.90;;;6.40;99.90;;;;;;5053615;28;20451;-65
2024/02/20 03:34:31;;;;;;;1104.33;999.90;;;6.50;99.90;;;;;;5053371;28;20455;-65
2024/02/20 03:36:59;;;;;;;1093.77;999.90;;;6.40;99.90;;;;;;5053684;28;20958;-65
2024/02/20 03:39:27;;;;;;;1089.63;999.80;;;6.40;99.90;;;;;;5053294;28;20462;-65
2024/02/20 03:41:53;;;;;;;1088.57;999.27;;;6.60;99.90;;;;;;5053296;28;20545;-65
2024/02/20 03:44:20;;;;;;;1105.03;999.90;;;6.50;99.90;;;;;;5052526;28;20853;-65
2024/02/20 03:46:47;;;;;;;1092.00;999.90;;;6.40;99.90;;;;;;5053382;28;20479;-65
2024/02/20 03:49:14;;;;;;;1092.13;999.90;;;6.40;99.90;;;;;;5052955;28;20489;-65
2024/02/20 03:51:42;;;;;;;1097.37;999.90;;;6.40;99.90;;;;;;5053143;28;20462;-65
2024/02/20 03:54:11;;;;;;;1081.17;993.17;;;6.40;99.90;;;;;;5052367;28;20502;-65
2024/02/20 03:56:37;;;;;;;1082.07;995.47;;;6.40;99.90;;;;;;5052792;28;20447;-65
2024/02/20 03:59:05;;;;;;;1069.47;981.67;;;6.30;99.90;;;;;;5052591;28;20495;-65
2024/02/20 04:01:31;;;;;;;1087.17;998.90;;;6.30;99.90;;;;;;5053204;28;20521;-65
2024/02/20 04:03:58;;;;;;;1083.50;994.93;;;6.30;99.90;;;;;;5052190;28;20471;-65
2024/02/20 04:06:25;;;;;;;1088.00;999.90;;;6.30;99.90;;;;;;5052555;28;20958;-65
2024/02/20 04:08:52;;;;;;;1096.00;999.90;;;6.30;99.90;;;;;;5052719;28;20457;-65
2024/02/20 04:11:21;;;;;;;1105.80;999.90;;;6.30;99.90;;;;;;5052672;28;20955;-65
2024/02/20 04:13:47;;;;;;;1111.43;999.90;;;6.30;99.90;;;;;;5052448;28;20562;-66
2024/02/20 04:16:14;;;;;;;1111.83;999.90;;;6.40;99.90;;;;;;5053118;28;20455;-65
2024/02/20 04:18:41;;;;;;;1116.03;999.90;;;6.40;99.90;;;;;;5052704;28;20451;-65
2024/02/20 04:21:08;;;;;;;1105.13;999.90;;;6.30;99.90;;;;;;5052537;28;20455;-65
2024/02/20 04:23:34;;;;;;;1109.93;999.90;;;6.30;99.90;;;;;;5052383;28;20471;-65
2024/02/20 04:26:01;;;;;;;1093.47;999.90;;;6.30;99.90;;;;;;5052040;28;20841;-65
2024/02/20 04:28:34;;;;;;;1114.33;999.90;;;6.30;99.90;;;;;;5052163;28;21028;-65
2024/02/20 04:31:01;;;;;;;1123.30;999.90;;;6.30;99.90;;;;;;5052584;28;20462;-66
2024/02/20 04:33:28;;;;;;;1107.90;999.90;;;6.30;99.90;;;;;;5051632;28;20475;-65
2024/02/20 04:35:55;;;;;;;1112.37;999.90;;;6.30;99.90;;;;;;5052106;28;20466;-65
2024/02/20 04:38:22;;;;;;;1097.10;999.90;;;6.30;99.90;;;;;;5052105;28;21041;-65
2024/02/20 04:40:49;;;;;;;1114.50;999.90;;;6.30;99.90;;;;;;5052320;28;20465;-65
2024/02/20 04:43:17;;;;;;;1103.87;999.90;;;6.30;99.90;;;;;;5051749;28;20473;-65
2024/02/20 04:45:45;;;;;;;1108.47;999.90;;;6.20;99.90;;;;;;5052344;28;20482;-65
2024/02/20 04:48:13;;;;;;;1113.07;999.90;;;6.30;99.90;;;;;;5051836;28;20489;-65
2024/02/20 04:50:40;;;;;;;1104.10;999.90;;;6.20;99.90;;;;;;5051960;28;20479;-65
2024/02/20 04:53:08;;;;;;;1101.20;999.90;;;6.10;99.90;;;;;;5051200;28;20474;-65
2024/02/20 04:55:36;;;;;;;1111.63;999.90;;;6.10;99.90;;;;;;5052230;28;20455;-65
2024/02/20 04:58:05;;;;;;;1127.70;999.90;;;6.00;99.90;;;;;;5052250;28;20447;-65
2024/02/20 05:00:32;;;;;;;1102.07;999.90;;;6.10;99.90;;;;;;5052460;28;20825;-65
2024/02/20 05:03:00;;;;;;;1116.37;999.90;;;6.00;99.90;;;;;;5051702;28;20471;-65
2024/02/20 05:05:27;;;;;;;1134.83;999.90;;;6.00;99.90;;;;;;5051951;28;20455;-65
2024/02/20 05:07:54;;;;;;;1138.07;999.90;;;6.00;99.90;;;;;;5052003;28;20487;-64
2024/02/20 05:10:21;;;;;;;1139.77;999.90;;;6.00;99.90;;;;;;5052020;28;20455;-65
2024/02/20 05:12:48;;;;;;;1139.20;999.90;;;6.00;99.90;;;;;;5051206;28;20517;-64
2024/02/20 05:15:15;;;;;;;1138.30;999.90;;;5.90;99.90;;;;;;5051864;28;20450;-64
2024/02/20 05:17:41;;;;;;;1127.57;999.90;;;5.90;99.90;;;;;;5051591;28;20447;-65
2024/02/20 05:20:11;;;;;;;1138.70;999.90;;;5.90;99.90;;;;;;5051520;28;20451;-65
2024/02/20 05:22:38;;;;;;;1158.80;999.90;;;5.90;99.90;;;;;;5051480;28;20479;-64
2024/02/20 05:25:06;;;;;;;1134.50;999.90;;;6.00;99.90;;;;;;5051717;28;20585;-65
2024/02/20 05:27:33;;;;;;;1124.53;999.90;;;5.70;99.90;;;;;;5051585;28;20475;-65
2024/02/20 05:30:00;;;;;;;1143.77;999.90;;;5.60;99.90;;;;;;5051447;28;20660;-65
2024/02/20 05:32:26;;;;;;;1162.40;999.90;;;5.60;99.90;;;;;;5051419;28;20478;-65
2024/02/20 05:34:53;;;;;;;1138.47;999.90;;;5.50;99.90;;;;;;5051559;28;20451;-66
2024/02/20 05:37:21;;;;;;;1145.43;999.90;;;5.40;99.90;;;;;;5051588;28;20459;-65
2024/02/20 05:39:48;;;;;;;1145.83;999.90;;;5.40;99.90;;;;;;5051580;28;20451;-65
2024/02/20 05:42:15;;;;;;;1157.00;999.90;;;5.20;99.90;;;;;;5050898;28;20451;-65
2024/02/20 05:44:42;;;;;;;1153.33;999.90;;;5.20;99.90;;;;;;5052617;28;20849;-65
2024/02/20 05:47:08;;;;;;;1167.80;999.90;;;5.10;99.90;;;;;;5054828;28;20479;-65
2024/02/20 05:49:35;;;;;;;1173.07;999.90;;;5.10;99.90;;;;;;5055379;28;20509;-65
2024/02/20 05:52:02;;;;;;;1160.63;999.90;;;5.20;99.90;;;;;;5055002;28;20455;-64
2024/02/20 05:54:30;;;;;;;1165.63;999.90;;;5.00;99.90;;;;;;5054728;28;20466;-65
2024/02/20 05:56:57;;;;;;;1168.93;999.90;;;5.10;99.90;;;;;;5054834;28;20979;-65
2024/02/20 05:59:24;;;;;;;1165.00;999.90;;;5.10;99.90;;;;;;5054931;28;20467;-65
2024/02/20 06:01:51;;;;;;;1158.67;999.90;;;5.20;99.90;;;;;;5054602;28;20462;-65
2024/02/20 06:04:18;;;;;;;1166.97;999.90;;;5.20;99.90;;;;;;5054573;28;20477;-68
2024/02/20 06:06:46;;;;;;;1176.83;999.90;;;5.30;99.90;;;;;;5055040;28;20451;-68
2024/02/20 06:09:13;;;;;;;1165.37;999.90;;;5.30;99.90;;;;;;5054726;28;20598;-68
2024/02/20 06:11:41;;;;;;;1175.50;999.90;;;5.20;99.90;;;;;;5054977;28;20454;-68
2024/02/20 06:14:08;;;;;;;1171.50;999.90;;;5.30;99.90;;;;;;5054031;28;20485;-68
2024/02/20 06:16:35;;;;;;;1160.47;999.90;;;5.30;99.90;;;;;;5054735;28;20450;-68
2024/02/20 06:19:01;;;;;;;1158.27;999.90;;;5.30;99.90;;;;;;5054753;28;20538;-67
2024/02/20 06:21:28;;;;;;;1160.80;999.90;;;5.30;99.90;;;;;;5053664;28;20454;-67
2024/02/20 06:23:55;;;;;;;1165.83;999.90;;;5.20;99.90;;;;;;5053296;28;20487;-67
2024/02/20 06:26:22;;;;;;;1156.80;999.90;;;5.20;99.90;;;;;;5054924;28;20451;-67
2024/02/20 06:28:51;;;;;;;1169.20;999.90;;;5.30;99.90;;;;;;5054342;28;20941;-68
2024/02/20 06:31:18;;;;;;;1166.53;999.90;;;5.20;99.90;;;;;;5046593;28;20543;-68
2024/02/20 06:33:45;;;;;;;1145.30;999.90;;;5.30;99.90;;;;;;5054036;28;20477;-67
2024/02/20 06:36:11;;;;;;;1115.10;999.90;;;5.40;99.90;;;;;;5054325;28;20962;-68
2024/02/20 06:38:38;;;;;;;1117.53;999.90;;;5.40;99.90;;;;;;5054434;28;20462;-67
2024/02/20 06:41:05;;;;;;;1136.67;999.90;;;5.50;99.90;;;;;;5054853;28;20459;-68
2024/02/20 06:43:32;;;;;;;1133.27;999.90;;;5.60;99.90;;;;;;5054937;28;20482;-68
2024/02/20 06:46:01;;;;;;;1136.00;999.90;;;5.70;99.90;;;;;;5055893;28;20462;-67
2024/02/20 06:48:28;;;;;;;1134.93;999.90;;;5.70;99.90;;;;;;5054762;28;20832;-67
2024/02/20 06:50:55;;;;;;;1144.57;999.90;;;5.70;99.90;;;;;;5054295;28;20451;-67
2024/02/20 06:53:22;;;;;;;1127.00;999.90;;;5.80;99.90;;;;;;5053500;28;20472;-69
2024/02/20 06:55:49;;;;;;;1133.77;999.90;;;5.90;99.90;;;;;;5053556;28;20903;-66
2024/02/20 06:58:16;;;;;;;1140.07;999.90;;;6.00;99.90;;;;;;5045099;28;20458;-68
2024/02/20 07:00:42;;;;;;;1126.40;999.90;;;6.00;99.90;;;;;;5053922;28;20458;-68
2024/02/20 07:03:12;;;;;;;1128.13;999.90;;;6.10;99.90;;;;;;5053311;28;20475;-68
2024/02/20 07:05:38;;;;;;;1125.47;999.90;;;6.10;99.90;;;;;;5054057;28;20938;-69
2024/02/20 07:08:06;;;;;;;1120.37;999.90;;;6.10;99.90;;;;;;5053678;28;20475;-66
2024/02/20 07:10:33;;;;;;;1129.17;999.90;;;6.20;99.90;;;;;;5053392;28;20455;-66
2024/02/20 07:12:59;;;;;;;1137.23;999.90;;;6.20;99.90;;;;;;5053030;28;20475;-66
2024/02/20 07:15:26;;;;;;;1134.37;999.90;;;6.20;99.90;;;;;;5053383;28;20451;-65
2024/02/20 07:17:53;;;;;;;1135.83;999.90;;;6.20;99.90;;;;;;5053006;28;20962;-68
2024/02/20 07:20:22;;;;;;;1162.47;999.90;;;6.20;99.90;;;;;;5053527;28;20456;-68
2024/02/20 07:22:49;;;;;;;1144.47;999.90;;;6.30;99.90;;;;;;5052971;28;20472;-68
2024/02/20 07:25:18;;;;;;;1133.10;999.90;;;6.30;99.90;;;;;;5053291;28;20454;-68
2024/02/20 07:27:45;;;;;;;1126.77;999.90;;;6.40;99.90;;;;;;5053224;28;21010;-65
2024/02/20 07:30:12;;;;;;;1130.77;999.90;;;6.50;99.90;;;;;;5053425;28;20459;-66
2024/02/20 07:32:41;;;;;;;1112.43;999.90;;;6.60;99.90;;;;;;5052920;28;20471;-68
2024/02/20 07:35:09;;;;;;;1093.03;999.90;;;6.70;99.90;;;;;;5053172;28;20494;-65
2024/02/20 07:37:38;;;;;;;1077.83;993.50;;;6.70;99.90;;;;;;5053139;28;20455;-66
2024/02/20 07:40:06;;;;;;;1053.97;973.13;;;6.80;99.90;;;;;;5052949;28;20458;-68
2024/02/20 07:42:32;;;;;;;1028.10;950.10;;;6.80;99.90;;;;;;5052636;28;20549;-68
2024/02/20 07:44:59;;;;;;;999.07;924.40;;;6.90;99.90;;;;;;5052774;28;20458;-68
2024/02/20 07:47:26;;;;;;;982.30;908.23;;;6.90;99.90;;;;;;5051257;28;20451;-68
2024/02/20 07:49:53;;;;;;;963.23;891.43;;;7.00;99.90;;;;;;5052170;28;20463;-68
2024/02/20 07:52:20;;;;;;;931.33;861.73;;;7.00;99.90;;;;;;5051899;28;20686;-68
2024/02/20 07:54:48;;;;;;;923.90;856.00;;;7.10;99.90;;;;;;5052077;28;20463;-67
2024/02/20 07:57:15;;;;;;;914.07;846.60;;;7.10;99.90;;;;;;5052050;28;20459;-67
2024/02/20 07:59:41;;;;;;;887.50;822.40;;;7.20;99.90;;;;;;5052418;28;20888;-66
2024/02/20 08:02:09;;;;;;;861.43;799.60;;;7.30;99.90;;;;;;5052701;28;20458;-65
2024/02/20 08:04:35;;;;;;;843.80;783.70;;;7.30;99.90;;;;;;5052019;28;20832;-65
2024/02/20 08:07:02;;;;;;;835.47;776.53;;;7.40;99.90;;;;;;5051474;28;20455;-66
2024/02/20 08:09:29;;;;;;;830.30;771.23;;;7.40;99.90;;;;;;5052336;28;20486;-66
2024/02/20 08:11:57;;;;;;;802.67;748.03;;;7.50;99.90;;;;;;5052029;28;20451;-66
2024/02/20 08:14:25;;;;;;;797.60;746.27;;;7.50;99.90;;;;;;5051569;28;20509;-66
2024/02/20 08:16:52;;;;;;;798.10;747.60;;;7.50;99.90;;;;;;5051720;28;20501;-66
2024/02/20 08:19:19;;;;;;;816.67;763.80;;;7.60;99.90;;;;;;5051686;28;20705;-66
2024/02/20 08:21:45;;;;;;;822.73;770.43;;;7.70;99.90;;;;;;5051663;28;20990;-66
2024/02/20 08:24:12;;;;;;;796.83;750.07;;;7.80;99.90;;;;;;5051232;28;20481;-66
2024/02/20 08:26:39;;;;;;;772.37;728.37;;;7.90;99.90;;;;;;5051723;28;20458;-66
2024/02/20 08:29:08;;;;;;;778.77;735.10;;;7.90;99.90;;;;;;5050049;28;20490;-65
2024/02/20 08:31:35;;;;;;;781.27;738.83;;;8.00;99.90;;;;;;5051342;28;20818;-66
2024/02/20 08:34:02;;;;;;;782.53;740.10;;;8.00;99.90;;;;;;5051208;28;20482;-65
2024/02/20 08:36:30;;;;;;;778.93;734.97;;;8.00;99.90;;;;;;5051606;28;20890;-66
2024/02/20 08:38:56;;;;;;;754.00;714.13;;;8.10;99.90;;;;;;5051322;28;20455;-66
2024/02/20 08:41:23;;;;;;;707.17;672.33;;;8.20;99.90;;;;;;5051432;28;20989;-66
2024/02/20 08:43:51;;;;;;;675.07;643.33;;;8.30;99.90;;;;;;5050956;28;21017;-66
2024/02/20 08:46:19;;;;;;;691.50;658.70;;;8.50;99.90;;;;;;5051237;28;20447;-65
2024/02/20 08:48:46;;;;;;;593.93;568.40;;;8.60;99.90;;;;;;5051290;28;20483;-66
2024/02/20 08:51:14;;;;;;;558.40;534.73;;;8.70;99.90;;;;;;5051263;28;20490;-66
2024/02/20 08:53:41;;;;;;;512.13;491.93;;;8.90;99.90;;;;;;5050765;28;20471;-64
2024/02/20 08:56:08;;;;;;;421.70;404.43;;;8.90;99.90;;;;;;5051521;28;20451;-65
2024/02/20 08:58:34;;;;;;;359.57;344.00;;;9.10;99.90;;;;;;5050915;28;20455;-66
2024/02/20 09:01:01;;;;;;;285.48;272.98;;;9.20;99.90;;;;;;5049616;28;20452;-66
2024/02/20 09:03:29;;;;;;;256.10;245.10;;;9.00;99.90;;;;;;5050149;28;20735;-66
2024/02/20 09:05:57;;;;;;;216.33;204.73;;;9.20;99.90;;;;;;5050953;28;20451;-66
2024/02/20 09:08:24;;;;;;;187.80;178.30;;;9.20;99.90;;;;;;5050543;28;20483;-65
2024/02/20 09:10:50;;;;;;;216.57;206.23;;;9.30;99.90;;;;;;5050721;28;20455;-66
2024/02/20 09:13:18;;;;;;;186.03;176.77;;;9.40;99.90;;;;;;5042118;28;20509;-66
2024/02/20 09:15:45;;;;;;;132.20;124.47;;;9.40;99.90;;;;;;5051792;28;20455;-66
2024/02/20 09:18:12;;;;;;;170.60;160.60;;;9.50;99.90;;;;;;5052419;28;20458;-66
2024/02/20 09:20:40;;;;;;;85.20;77.80;;;9.50;99.90;;;;;;5055821;28;20451;-66
2024/02/20 09:23:07;;;;;;;104.20;96.23;;;9.50;99.90;;;;;;5055492;28;20471;-66
2024/02/20 09:25:33;;;;;;;92.20;84.83;;;9.60;99.90;;;;;;5055798;28;20457;-66
2024/02/20 09:28:00;;;;;;;97.97;90.53;;;9.70;99.90;;;;;;5055501;28;20453;-65
2024/02/20 09:30:27;;;;;;;98.80;92.43;;;9.60;99.90;;;;;;5055423;28;20450;-66
2024/02/20 09:32:54;;;;;;;85.23;78.70;;;9.70;99.90;;;;;;5054911;28;20471;-66
2024/02/20 09:35:21;;;;;;;85.93;78.30;;;9.60;99.90;;;;;;5055550;28;20862;-66
2024/02/20 09:37:50;;;;;;;88.97;81.17;;;9.70;99.90;;;;;;5055435;28;20447;-66
2024/02/20 09:40:20;;;;;;;82.10;76.00;;;9.90;99.90;;;;;;5055297;28;20454;-65
2024/02/20 09:42:49;;;;;;;81.17;75.33;;;9.90;99.90;;;;;;5055124;28;20857;-66
2024/02/20 09:45:19;;;;;;;86.33;79.10;;;9.90;99.90;;;;;;5055563;28;20455;-66
2024/02/20 09:47:47;;;;;;;72.97;66.63;;;10.00;99.90;;;;;;5055590;28;20482;-66
2024/02/20 09:50:17;;;;;;;59.17;53.43;;;10.10;99.90;;;;;;5055369;28;20997;-66
2024/02/20 09:52:47;;;;;;;43.30;38.50;;;10.10;99.90;;;;;;5054724;28;20475;-65
2024/02/20 09:55:18;;;;;;;51.90;44.60;;;10.20;99.90;;;;;;5054928;28;20469;-66
2024/02/20 09:57:45;;;;;;;54.33;42.60;;;10.20;99.90;;;;;;5055563;28;20451;-66
2024/02/20 10:00:13;;;;;;;43.50;34.53;;;10.30;99.90;;;;;;5055582;28;20467;-65
2024/02/20 10:02:43;;;;;;;50.10;37.50;;;10.30;99.90;;;;;;5054844;28;20471;-66
2024/02/20 10:05:13;;;;;;;43.73;33.20;;;10.40;99.90;;;;;;5055124;28;20494;-66
2024/02/20 10:07:40;;;;;;;52.03;41.93;;;10.40;99.90;;;;;;5054778;28;20455;-66
2024/02/20 10:10:09;;;;;;;61.40;33.57;;;10.50;99.90;;;;;;5054503;28;20485;-66
2024/02/20 10:12:39;;;;;;;46.87;35.03;;;10.50;99.90;;;;;;5054108;28;20475;-66
2024/02/20 10:15:10;;;;;;;39.83;29.10;;;10.30;99.90;;;;;;5054762;28;20470;-65
2024/02/20 10:17:37;;;;;;;48.03;32.27;;;10.20;99.90;;;;;;5054923;28;20865;-66
2024/02/20 10:20:10;;;;;;;43.63;32.47;;;10.30;99.90;;;;;;5054466;28;20451;-65
2024/02/20 10:22:37;;;;;;;43.40;34.27;;;10.20;99.90;;;;;;5054360;28;20980;-66
2024/02/20 10:25:05;;;;;;;50.67;38.50;;;10.20;99.90;;;;;;5054402;28;20458;-66
2024/02/20 10:27:33;;;;;;;69.93;39.50;;;10.30;99.90;;;;;;5054634;28;20454;-66
2024/02/20 10:30:01;;;;;;;52.40;35.13;;;10.10;99.90;;;;;;5053560;28;20490;-65
2024/02/20 10:32:28;;;;;;;42.43;35.60;;;10.10;99.90;;;;;;5053900;28;20471;-66
2024/02/20 10:35:02;;;;;;;61.73;36.30;;;10.20;99.90;;;;;;5054543;28;20510;-66
2024/02/20 10:37:29;;;;;;;45.50;33.83;;;10.10;99.90;;;;;;5054559;28;20455;-66
2024/02/20 10:40:09;;;;;;;50.03;30.70;;;10.10;99.90;;;;;;5054265;28;20448;-65
2024/02/20 10:42:37;;;;;;;45.70;33.90;;;10.20;99.90;;;;;;5053779;28;20479;-66
2024/02/20 10:45:08;;;;;;;48.03;31.63;;;10.20;99.90;;;;;;5053924;28;20458;-65
2024/02/20 10:47:37;;;;;;;53.50;35.50;;;10.30;99.90;;;;;;5054116;28;20462;-65
2024/02/20 10:50:07;;;;;;;43.73;34.90;;;10.30;99.90;;;;;;5054052;28;20854;-66
2024/02/20 10:52:36;;;;;;;47.83;30.50;;;10.60;99.90;;;;;;5053519;28;20482;-66
2024/02/20 10:55:06;;;;;;;50.87;28.47;;;10.70;99.90;;;;;;5053859;28;20451;-66
2024/02/20 10:57:34;;;;;;;39.37;25.50;;;10.80;99.90;;;;;;5053748;28;20504;-66
2024/02/20 11:00:07;;;;;;;45.28;24.92;;;10.80;99.90;;;;;;5053087;28;20505;-65
2024/02/20 11:02:35;;;;;;;43.42;27.95;;;10.90;99.90;;;;;;5052604;28;20474;-66
2024/02/20 11:05:02;;;;;;;51.90;27.23;;;11.00;99.90;;;;;;5053844;28;20216;-66
2024/02/20 11:07:30;;;;;;;37.07;22.77;;;11.20;99.90;;;;;;5053858;28;20885;-65
2024/02/20 11:10:10;;;;;;;50.30;19.67;;;11.30;99.90;;;;;;5053320;28;20501;-66
2024/02/20 11:12:37;;;;;;;30.17;16.00;;;11.50;99.90;;;;;;5053304;28;20554;-66
2024/02/20 11:15:08;;;;;;;34.87;17.60;;;11.30;99.90;;;;;;5053717;28;20455;-66
2024/02/20 11:17:37;;;;;;;39.77;17.00;;;11.40;99.90;;;;;;5053684;28;20451;-66
2024/02/20 11:20:09;;;;;;;32.03;16.10;;;11.60;99.90;;;;;;5053947;28;20961;-68
2024/02/20 11:22:36;;;;;;;27.13;13.43;;;11.50;99.90;;;;;;5052968;28;20494;-65
2024/02/20 11:25:08;;;;;;;29.57;12.17;;;11.40;99.90;;;;;;5051789;28;20447;-66
2024/02/20 11:27:42;;;;;;;28.83;12.80;;;11.40;99.90;;;;;;5052871;28;20518;-66
2024/02/20 11:30:18;;;;;;;25.73;13.43;;;11.50;99.90;;;;;;5053179;28;21048;-67
2024/02/20 11:32:47;;;;;;;21.97;10.77;;;11.60;99.90;;;;;;5053102;28;20474;-66
2024/02/20 11:35:33;;;;;;;25.63;11.00;;;11.60;99.90;;;;;;5053045;28;20455;-66
2024/02/20 11:38:03;;;;;;;25.73;11.20;;;11.50;99.90;;;;;;5055503;28;20833;-67
2024/02/20 11:40:32;;;;;;;22.50;10.97;;;11.30;99.90;;;;;;5053254;28;20451;-66
2024/02/20 11:43:00;;;;;;;33.03;11.67;;;11.30;99.90;;;;;;5051559;28;20470;-66
2024/02/20 11:45:29;;;;;;;26.87;10.40;;;11.20;99.90;;;;;;5052968;28;20457;-66
2024/02/20 11:48:02;;;;;;;17.37;8.90;;;11.20;99.90;;;;;;5053084;28;20470;-66
2024/02/20 11:50:30;;;;;;;22.40;9.27;;;11.20;99.90;;;;;;5052759;28;20515;-70
2024/02/20 11:53:04;;;;;;;28.47;9.10;;;11.30;99.90;;;;;;5052523;28;20471;-69
2024/02/20 11:55:35;;;;;;;30.07;8.80;;;11.60;99.90;;;;;;5052882;28;20739;-70
2024/02/20 11:58:04;;;;;;;30.67;11.13;;;11.60;99.90;;;;;;5052872;28;20451;-69
2024/02/20 12:00:36;;;;;;;24.43;8.00;;;11.80;99.90;;;;;;5053139;28;20451;-69
2024/02/20 12:03:07;;;;;;;22.93;8.30;;;11.80;99.90;;;;;;5052460;28;20504;-66
2024/02/20 12:05:37;;;;;;;25.23;9.23;;;11.70;99.90;;;;;;5052618;28;20451;-69
2024/02/20 12:08:12;;;;;;;21.80;9.80;;;11.70;99.90;;;;;;5052260;28;20459;-68
2024/02/20 12:10:39;;;;;;;30.37;9.50;;;12.10;99.90;;;;;;5052051;28;20486;-69
2024/02/20 12:13:13;;;;;;;25.35;9.05;;;12.10;99.90;;;;;;5051616;28;20452;-69
2024/02/20 12:15:41;;;;;;;25.40;7.63;;;12.10;99.90;;;;;;5052768;28;20696;-68
2024/02/20 12:18:10;;;;;;;18.73;7.67;;;11.90;99.90;;;;;;5052851;28;20466;-68